createdAt,value
2024-03-16T00:00:55.207Z,777.00
2024-03-16T00:01:55.219Z,776.00
2024-03-16T00:02:55.240Z,786.00
2024-03-16T00:03:55.326Z,779.00
2024-03-16T00:04:55.311Z,785.00
2024-03-16T00:05:55.340Z,785.00
2024-03-16T00:06:55.401Z,780.00
2024-03-16T00:07:55.403Z,780.00
2024-03-16T00:08:55.448Z,773.00
2024-03-16T00:09:55.509Z,786.00
2024-03-16T00:10:55.562Z,780.00
2024-03-16T00:11:55.523Z,780.00
2024-03-16T00:12:55.625Z,779.00
2024-03-16T00:13:55.610Z,785.00
2024-03-16T00:14:55.627Z,787.00
2024-03-16T00:15:55.700Z,780.00
2024-03-16T00:16:55.675Z,775.00
2024-03-16T00:17:55.733Z,779.00
2024-03-16T00:18:55.800Z,782.00
2024-03-16T00:19:55.783Z,780.00
2024-03-16T00:20:55.837Z,780.00
2024-03-16T00:21:56.052Z,785.00
2024-03-16T00:22:55.882Z,769.00
2024-03-16T00:23:55.925Z,776.00
2024-03-16T00:24:55.974Z,770.00
2024-03-16T00:25:55.993Z,774.00
2024-03-16T00:26:56.027Z,773.00
2024-03-16T00:27:56.094Z,773.00
2024-03-16T00:28:56.099Z,772.00
2024-03-16T00:29:56.123Z,761.00
2024-03-16T00:30:56.218Z,765.00
2024-03-16T00:31:56.213Z,765.00
2024-03-16T00:32:56.269Z,762.00
2024-03-16T00:33:56.311Z,769.00
2024-03-16T00:34:56.311Z,764.00
2024-03-16T00:35:56.352Z,772.00
2024-03-16T00:36:56.456Z,763.00
2024-03-16T00:37:56.439Z,760.00
2024-03-16T00:38:56.481Z,759.00
2024-03-16T00:39:56.513Z,768.00
2024-03-16T00:40:56.535Z,757.00
2024-03-16T00:41:56.567Z,761.00
2024-03-16T00:42:56.619Z,768.00
2024-03-16T00:43:56.664Z,768.00
2024-03-16T00:44:56.679Z,762.00
2024-03-16T00:45:56.762Z,761.00
2024-03-16T00:46:56.760Z,766.00
2024-03-16T00:47:56.843Z,761.00
2024-03-16T00:48:56.922Z,761.00
2024-03-16T00:49:56.944Z,760.00
2024-03-16T00:50:56.914Z,756.00
2024-03-16T00:51:57.063Z,750.00
2024-03-16T00:52:56.996Z,759.00
2024-03-16T00:53:57.034Z,761.00
2024-03-16T00:54:57.078Z,753.00
2024-03-16T00:55:57.100Z,755.00
2024-03-16T00:56:57.134Z,752.00
2024-03-16T00:57:57.255Z,756.00
2024-03-16T00:58:57.240Z,753.00
2024-03-16T00:59:57.250Z,757.00
2024-03-16T01:00:57.389Z,765.00
2024-03-16T01:01:57.409Z,754.00
2024-03-16T01:02:57.368Z,749.00
2024-03-16T01:03:57.491Z,750.00
2024-03-16T01:04:57.461Z,762.00
2024-03-16T01:05:57.496Z,758.00
2024-03-16T01:06:57.533Z,758.00
2024-03-16T01:07:57.754Z,756.00
2024-03-16T01:08:57.596Z,760.00
2024-03-16T01:09:57.655Z,759.00
2024-03-16T01:10:57.758Z,752.00
2024-03-16T01:11:57.700Z,762.00
2024-03-16T01:12:57.745Z,760.00
2024-03-16T01:13:57.771Z,753.00
2024-03-16T01:14:57.803Z,756.00
2024-03-16T01:15:57.863Z,755.00
2024-03-16T01:16:57.917Z,764.00
2024-03-16T01:17:57.943Z,758.00
2024-03-16T01:18:58.005Z,755.00
2024-03-16T01:19:57.986Z,760.00
2024-03-16T01:20:58.020Z,762.00
2024-03-16T01:21:58.113Z,756.00
2024-03-16T01:22:58.090Z,764.00
2024-03-16T01:23:58.132Z,764.00
2024-03-16T01:24:58.178Z,758.00
2024-03-16T01:25:58.203Z,770.00
2024-03-16T01:26:58.244Z,763.00
2024-03-16T01:27:58.349Z,763.00
2024-03-16T01:28:58.322Z,760.00
2024-03-16T01:29:58.363Z,764.00
2024-03-16T01:30:58.449Z,756.00
2024-03-16T01:31:58.510Z,767.00
2024-03-16T01:32:58.531Z,762.00
2024-03-16T01:33:58.576Z,763.00
2024-03-16T01:34:58.562Z,751.00
2024-03-16T01:35:58.605Z,755.00
2024-03-16T01:36:58.695Z,762.00
2024-03-16T01:37:58.676Z,761.00
2024-03-16T01:38:58.724Z,767.00
2024-03-16T01:39:58.795Z,767.00
2024-03-16T01:40:58.795Z,756.00
2024-03-16T01:41:58.861Z,760.00
2024-03-16T01:42:58.913Z,763.00
2024-03-16T01:43:58.921Z,767.00
2024-03-16T01:44:58.945Z,763.00
2024-03-16T01:45:59.066Z,750.00
2024-03-16T01:46:59.029Z,752.00
2024-03-16T01:47:59.084Z,748.00
2024-03-16T01:48:59.137Z,762.00
2024-03-16T01:49:59.141Z,757.00
2024-03-16T01:50:59.177Z,758.00
2024-03-16T01:51:59.254Z,760.00
2024-03-16T01:52:59.246Z,742.00
2024-03-16T01:53:59.299Z,761.00
2024-03-16T01:54:59.368Z,759.00
2024-03-16T01:55:59.365Z,761.00
2024-03-16T01:56:59.415Z,766.00
2024-03-16T01:57:59.503Z,757.00
2024-03-16T01:58:59.509Z,760.00
2024-03-16T01:59:59.530Z,752.00
2024-03-16T02:00:59.632Z,748.00
2024-03-16T02:01:59.694Z,756.00
2024-03-16T02:02:59.672Z,755.00
2024-03-16T02:03:59.802Z,760.00
2024-03-16T02:04:59.745Z,750.00
2024-03-16T02:05:59.801Z,758.00
2024-03-16T02:06:59.891Z,752.00
2024-03-16T02:07:59.869Z,754.00
2024-03-16T02:08:59.924Z,756.00
2024-03-16T02:09:59.997Z,755.00
2024-03-16T02:11:00.037Z,754.00
2024-03-16T02:12:00.054Z,752.00
2024-03-16T02:13:00.213Z,754.00
2024-03-16T02:14:00.186Z,753.00
2024-03-16T02:15:00.199Z,753.00
2024-03-16T02:16:00.302Z,749.00
2024-03-16T02:17:00.280Z,741.00
2024-03-16T02:18:00.386Z,746.00
2024-03-16T02:19:00.492Z,746.00
2024-03-16T02:20:00.394Z,745.00
2024-03-16T02:21:00.450Z,741.00
2024-03-16T02:22:00.581Z,749.00
2024-03-16T02:23:00.525Z,741.00
2024-03-16T02:24:00.580Z,748.00
2024-03-16T02:25:00.683Z,742.00
2024-03-16T02:26:00.681Z,746.00
2024-03-16T02:27:00.696Z,758.00
2024-03-16T02:28:00.819Z,743.00
2024-03-16T02:29:00.773Z,732.00
2024-03-16T02:30:00.849Z,748.00
2024-03-16T02:31:00.900Z,743.00
2024-03-16T02:32:00.943Z,735.00
2024-03-16T02:33:01.016Z,745.00
2024-03-16T02:34:01.109Z,729.00
2024-03-16T02:35:01.037Z,746.00
2024-03-16T02:36:01.085Z,743.00
2024-03-16T02:37:01.154Z,746.00
2024-03-16T02:38:01.173Z,738.00
2024-03-16T02:39:01.256Z,749.00
2024-03-16T02:40:01.328Z,750.00
2024-03-16T02:41:01.301Z,740.00
2024-03-16T02:42:01.322Z,741.00
2024-03-16T02:43:01.400Z,731.00
2024-03-16T02:44:01.420Z,736.00
2024-03-16T02:45:01.461Z,747.00
2024-03-16T02:46:01.500Z,742.00
2024-03-16T02:47:01.584Z,739.00
2024-03-16T02:48:01.661Z,748.00
2024-03-16T02:49:01.706Z,748.00
2024-03-16T02:50:01.708Z,747.00
2024-03-16T02:51:01.723Z,739.00
2024-03-16T02:52:01.830Z,741.00
2024-03-16T02:53:01.806Z,752.00
2024-03-16T02:54:01.851Z,745.00
2024-03-16T02:55:01.968Z,741.00
2024-03-16T02:56:01.944Z,745.00
2024-03-16T02:57:01.968Z,737.00
2024-03-16T02:58:02.072Z,735.00
2024-03-16T02:59:02.058Z,742.00
2024-03-16T03:00:02.102Z,744.00
2024-03-16T03:01:02.214Z,738.00
2024-03-16T03:02:02.211Z,734.00
2024-03-16T03:03:02.240Z,736.00
2024-03-16T03:04:02.351Z,740.00
2024-03-16T03:05:02.346Z,736.00
2024-03-16T03:06:02.368Z,742.00
2024-03-16T03:07:02.502Z,734.00
2024-03-16T03:08:02.457Z,742.00
2024-03-16T03:09:02.506Z,746.00
2024-03-16T03:10:02.691Z,736.00
2024-03-16T03:11:02.603Z,743.00
2024-03-16T03:12:02.653Z,741.00
2024-03-16T03:13:02.729Z,744.00
2024-03-16T03:14:02.845Z,741.00
2024-03-16T03:15:02.762Z,742.00
2024-03-16T03:16:02.950Z,747.00
2024-03-16T03:17:02.865Z,752.00
2024-03-16T03:18:02.915Z,743.00
2024-03-16T03:19:02.997Z,748.00
2024-03-16T03:20:02.993Z,742.00
2024-03-16T03:21:03.023Z,747.00
2024-03-16T03:22:03.091Z,748.00
2024-03-16T03:23:03.109Z,748.00
2024-03-16T03:24:03.151Z,750.00
2024-03-16T03:25:03.351Z,738.00
2024-03-16T03:26:03.244Z,746.00
2024-03-16T03:27:03.286Z,744.00
2024-03-16T03:28:03.350Z,747.00
2024-03-16T03:29:03.369Z,739.00
2024-03-16T03:30:03.421Z,737.00
2024-03-16T03:31:03.564Z,746.00
2024-03-16T03:32:03.513Z,736.00
2024-03-16T03:33:03.611Z,741.00
2024-03-16T03:34:03.654Z,745.00
2024-03-16T03:35:03.664Z,748.00
2024-03-16T03:36:03.696Z,749.00
2024-03-16T03:37:03.813Z,745.00
2024-03-16T03:38:04.687Z,740.00
2024-03-16T03:39:03.841Z,752.00
2024-03-16T03:40:04.089Z,739.00
2024-03-16T03:41:03.945Z,743.00
2024-03-16T03:42:03.967Z,747.00
2024-03-16T03:43:04.065Z,743.00
2024-03-16T03:44:04.076Z,754.00
2024-03-16T03:45:04.103Z,735.00
2024-03-16T03:46:04.202Z,737.00
2024-03-16T03:47:04.186Z,749.00
2024-03-16T03:48:04.700Z,747.00
2024-03-16T03:49:04.427Z,752.00
2024-03-16T03:50:04.351Z,739.00
2024-03-16T03:51:04.354Z,755.00
2024-03-16T03:52:05.633Z,738.00
2024-03-16T03:53:04.545Z,744.00
2024-03-16T03:54:04.501Z,742.00
2024-03-16T03:55:04.570Z,747.00
2024-03-16T03:56:04.587Z,752.00
2024-03-16T03:57:04.639Z,750.00
2024-03-16T03:58:04.729Z,736.00
2024-03-16T03:59:04.741Z,745.00
2024-03-16T04:00:04.788Z,749.00
2024-03-16T04:01:04.950Z,749.00
2024-03-16T04:02:04.984Z,746.00
2024-03-16T04:03:04.923Z,741.00
2024-03-16T04:04:05.017Z,740.00
2024-03-16T04:05:05.016Z,738.00
2024-03-16T04:06:05.081Z,750.00
2024-03-16T04:07:05.226Z,744.00
2024-03-16T04:08:05.165Z,751.00
2024-03-16T04:09:05.224Z,732.00
2024-03-16T04:10:05.311Z,745.00
2024-03-16T04:11:06.796Z,740.00
2024-03-16T04:12:05.352Z,748.00
2024-03-16T04:13:05.599Z,746.00
2024-03-16T04:14:05.451Z,741.00
2024-03-16T04:15:05.490Z,741.00
2024-03-16T04:16:05.578Z,741.00
2024-03-16T04:17:05.598Z,730.00
2024-03-16T04:18:05.681Z,741.00
2024-03-16T04:19:05.853Z,741.00
2024-03-16T04:20:05.733Z,739.00
2024-03-16T04:21:05.798Z,741.00
2024-03-16T04:22:05.850Z,738.00
2024-03-16T04:23:05.872Z,741.00
2024-03-16T04:24:05.909Z,743.00
2024-03-16T04:25:06.103Z,739.00
2024-03-16T04:26:06.004Z,746.00
2024-03-16T04:27:06.063Z,745.00
2024-03-16T04:28:06.134Z,738.00
2024-03-16T04:29:06.203Z,737.00
2024-03-16T04:30:06.201Z,732.00
2024-03-16T04:31:06.391Z,742.00
2024-03-16T04:32:06.283Z,742.00
2024-03-16T04:33:06.400Z,749.00
2024-03-16T04:34:06.409Z,740.00
2024-03-16T04:35:06.464Z,734.00
2024-03-16T04:36:06.496Z,738.00
2024-03-16T04:37:06.614Z,734.00
2024-03-16T04:38:06.574Z,735.00
2024-03-16T04:39:06.630Z,739.00
2024-03-16T04:40:06.738Z,738.00
2024-03-16T04:41:06.711Z,731.00
2024-03-16T04:42:06.750Z,733.00
2024-03-16T04:43:06.845Z,730.00
2024-03-16T04:44:06.829Z,734.00
2024-03-16T04:45:06.886Z,731.00
2024-03-16T04:46:07.026Z,727.00
2024-03-16T04:47:06.978Z,723.00
2024-03-16T04:48:07.088Z,731.00
2024-03-16T04:49:07.149Z,734.00
2024-03-16T04:50:07.135Z,730.00
2024-03-16T04:51:07.182Z,726.00
2024-03-16T04:52:07.298Z,727.00
2024-03-16T04:53:07.280Z,734.00
2024-03-16T04:54:07.356Z,736.00
2024-03-16T04:55:07.413Z,721.00
2024-03-16T04:56:07.428Z,735.00
2024-03-16T04:57:07.479Z,727.00
2024-03-16T04:58:14.887Z,600.00
2024-03-16T04:59:14.828Z,600.00
2024-03-16T05:00:14.845Z,600.00
2024-03-16T05:01:14.966Z,600.00
2024-03-16T05:02:14.879Z,600.00
2024-03-16T05:03:14.880Z,600.00
2024-03-16T05:04:14.961Z,603.00
2024-03-16T05:05:14.908Z,606.00
2024-03-16T05:06:14.930Z,604.00
2024-03-16T05:07:14.995Z,604.00
2024-03-16T05:08:14.955Z,605.00
2024-03-16T05:09:14.983Z,601.00
2024-03-16T05:10:15.215Z,603.00
2024-03-16T05:11:15.060Z,608.00
2024-03-16T05:12:15.024Z,604.00
2024-03-16T05:13:15.065Z,600.00
2024-03-16T05:14:15.054Z,604.00
2024-03-16T05:15:15.071Z,604.00
2024-03-16T05:16:15.132Z,604.00
2024-03-16T05:17:15.155Z,605.00
2024-03-16T05:18:15.122Z,603.00
2024-03-16T05:19:15.177Z,605.00
2024-03-16T05:20:15.129Z,607.00
2024-03-16T05:21:15.203Z,601.00
2024-03-16T05:22:15.307Z,603.00
2024-03-16T05:23:15.209Z,606.00
2024-03-16T05:24:15.194Z,605.00
2024-03-16T05:25:15.310Z,603.00
2024-03-16T05:26:15.239Z,605.00
2024-03-16T05:27:15.236Z,604.00
2024-03-16T05:28:15.325Z,603.00
2024-03-16T05:29:15.346Z,603.00
2024-03-16T05:30:15.298Z,602.00
2024-03-16T05:31:15.555Z,602.00
2024-03-16T05:32:15.339Z,602.00
2024-03-16T05:33:15.338Z,602.00
2024-03-16T05:34:15.398Z,602.00
2024-03-16T05:35:15.362Z,602.00
2024-03-16T05:36:15.376Z,601.00
2024-03-16T05:37:15.599Z,605.00
2024-03-16T05:38:15.415Z,604.00
2024-03-16T05:39:15.429Z,603.00
2024-03-16T05:40:15.616Z,603.00
2024-03-16T05:41:15.475Z,605.00
2024-03-16T05:42:15.477Z,607.00
2024-03-16T05:43:15.528Z,605.00
2024-03-16T05:44:15.514Z,605.00
2024-03-16T05:45:15.538Z,607.00
2024-03-16T05:46:15.594Z,603.00
2024-03-16T05:47:15.557Z,607.00
2024-03-16T05:48:15.576Z,603.00
2024-03-16T05:49:15.638Z,604.00
2024-03-16T05:50:15.588Z,600.00
2024-03-16T05:51:15.646Z,608.00
2024-03-16T05:52:15.691Z,605.00
2024-03-16T05:53:15.641Z,607.00
2024-03-16T05:54:15.654Z,601.00
2024-03-16T05:55:15.690Z,604.00
2024-03-16T05:56:15.722Z,605.00
2024-03-16T05:57:15.830Z,606.00
2024-03-16T05:58:15.876Z,603.00
2024-03-16T05:59:15.893Z,606.00
2024-03-16T06:00:15.988Z,605.00
2024-03-16T06:01:16.053Z,606.00
2024-03-16T06:02:16.070Z,602.00
2024-03-16T06:03:16.115Z,604.00
2024-03-16T06:04:16.194Z,603.00
2024-03-16T06:05:16.220Z,601.00
2024-03-16T06:06:16.276Z,602.00
2024-03-16T06:07:16.367Z,604.00
2024-03-16T06:08:16.364Z,606.00
2024-03-16T06:09:16.445Z,607.00
2024-03-16T06:10:16.595Z,604.00
2024-03-16T06:11:16.762Z,607.00
2024-03-16T06:12:16.662Z,607.00
2024-03-16T06:13:16.761Z,602.00
2024-03-16T06:14:16.686Z,609.00
2024-03-16T06:15:16.749Z,607.00
2024-03-16T06:16:16.866Z,601.00
2024-03-16T06:17:16.865Z,601.00
2024-03-16T06:18:16.931Z,606.00
2024-03-16T06:19:17.038Z,601.00
2024-03-16T06:20:17.037Z,605.00
2024-03-16T06:21:17.091Z,607.00
2024-03-16T06:22:17.163Z,602.00
2024-03-16T06:23:17.202Z,607.00
2024-03-16T06:24:17.272Z,606.00
2024-03-16T06:25:17.343Z,606.00
2024-03-16T06:26:17.381Z,606.00
2024-03-16T06:27:17.425Z,602.00
2024-03-16T06:28:17.505Z,605.00
2024-03-16T06:29:17.537Z,606.00
2024-03-16T06:30:17.598Z,601.00
2024-03-16T06:31:17.709Z,605.00
2024-03-16T06:32:17.718Z,603.00
2024-03-16T06:33:17.765Z,601.00
2024-03-16T06:34:17.866Z,605.00
2024-03-16T06:35:17.876Z,604.00
2024-03-16T06:36:17.936Z,604.00
2024-03-16T06:37:18.139Z,609.00
2024-03-16T06:38:18.038Z,601.00
2024-03-16T06:39:18.080Z,605.00
2024-03-16T06:40:18.167Z,604.00
2024-03-16T06:41:18.940Z,604.00
2024-03-16T06:42:18.239Z,603.00
2024-03-16T06:43:18.364Z,606.00
2024-03-16T06:44:18.362Z,606.00
2024-03-16T06:45:18.423Z,604.00
2024-03-16T06:46:18.524Z,605.00
2024-03-16T06:47:18.509Z,609.00
2024-03-16T06:48:18.563Z,601.00
2024-03-16T06:49:18.657Z,606.00
2024-03-16T06:50:18.701Z,605.00
2024-03-16T06:51:18.725Z,604.00
2024-03-16T06:52:18.828Z,607.00
2024-03-16T06:53:18.841Z,603.00
2024-03-16T06:54:18.892Z,605.00
2024-03-16T06:55:19.342Z,602.00
2024-03-16T06:56:18.981Z,603.00
2024-03-16T06:57:19.038Z,606.00
2024-03-16T06:58:19.196Z,607.00
2024-03-16T06:59:19.167Z,603.00
2024-03-16T07:00:19.251Z,604.00
2024-03-16T07:01:19.398Z,603.00
2024-03-16T07:02:19.320Z,603.00
2024-03-16T07:03:19.374Z,605.00
2024-03-16T07:04:19.501Z,605.00
2024-03-16T07:05:19.473Z,605.00
2024-03-16T07:06:19.537Z,609.00
2024-03-16T07:07:19.653Z,603.00
2024-03-16T07:08:19.656Z,602.00
2024-03-16T07:09:19.986Z,605.00
2024-03-16T07:10:19.818Z,604.00
2024-03-16T07:11:19.936Z,605.00
2024-03-16T07:12:19.896Z,606.00
2024-03-16T07:13:20.176Z,604.00
2024-03-16T07:14:20.005Z,605.00
2024-03-16T07:15:20.071Z,605.00
2024-03-16T07:16:20.121Z,606.00
2024-03-16T07:17:20.179Z,603.00
2024-03-16T07:18:20.279Z,606.00
2024-03-16T07:19:20.294Z,605.00
2024-03-16T07:20:20.345Z,604.00
2024-03-16T07:21:20.461Z,603.00
2024-03-16T07:22:20.502Z,606.00
2024-03-16T07:23:20.513Z,605.00
2024-03-16T07:24:20.561Z,603.00
2024-03-16T07:25:20.681Z,606.00
2024-03-16T07:26:20.669Z,602.00
2024-03-16T07:27:20.736Z,606.00
2024-03-16T07:28:20.812Z,605.00
2024-03-16T07:29:20.839Z,606.00
2024-03-16T07:30:20.908Z,605.00
2024-03-16T07:31:20.986Z,603.00
2024-03-16T07:32:21.010Z,601.00
2024-03-16T07:33:21.063Z,603.00
2024-03-16T07:34:21.127Z,605.00
2024-03-16T07:35:21.175Z,604.00
2024-03-16T07:36:21.227Z,606.00
2024-03-16T07:37:21.309Z,602.00
2024-03-16T07:38:21.338Z,606.00
2024-03-16T07:39:21.390Z,605.00
2024-03-16T07:40:21.487Z,604.00
2024-03-16T07:41:21.523Z,606.00
2024-03-16T07:42:21.564Z,604.00
2024-03-16T07:43:21.721Z,605.00
2024-03-16T07:44:21.685Z,606.00
2024-03-16T07:45:21.745Z,602.00
2024-03-16T07:46:21.854Z,604.00
2024-03-16T07:47:21.844Z,607.00
2024-03-16T07:48:21.897Z,604.00
2024-03-16T07:49:22.046Z,606.00
2024-03-16T07:50:22.001Z,601.00
2024-03-16T07:51:22.058Z,607.00
2024-03-16T07:52:22.194Z,606.00
2024-03-16T07:53:22.169Z,603.00
2024-03-16T07:54:22.234Z,603.00
2024-03-16T07:55:22.307Z,597.00
2024-03-16T07:56:22.343Z,608.00
2024-03-16T07:57:22.407Z,605.00
2024-03-16T07:58:22.553Z,610.00
2024-03-16T07:59:22.976Z,606.00
2024-03-16T08:00:22.550Z,606.00
2024-03-16T08:01:23.032Z,605.00
2024-03-16T08:02:22.678Z,605.00
2024-03-16T08:03:22.703Z,606.00
2024-03-16T08:04:22.826Z,604.00
2024-03-16T08:05:22.807Z,601.00
2024-03-16T08:06:22.870Z,608.00
2024-03-16T08:07:23.056Z,605.00
2024-03-16T08:08:22.962Z,604.00
2024-03-16T08:09:23.024Z,605.00
2024-03-16T08:10:23.226Z,604.00
2024-03-16T08:11:23.143Z,603.00
2024-03-16T08:12:24.022Z,602.00
2024-03-16T08:13:23.373Z,604.00
2024-03-16T08:14:23.297Z,608.00
2024-03-16T08:15:23.346Z,602.00
2024-03-16T08:16:23.428Z,601.00
2024-03-16T08:17:23.445Z,604.00
2024-03-16T08:18:23.493Z,606.00
2024-03-16T08:19:23.601Z,604.00
2024-03-16T08:20:23.602Z,606.00
2024-03-16T08:21:23.669Z,605.00
2024-03-16T08:22:23.741Z,608.00
2024-03-16T08:23:23.763Z,606.00
2024-03-16T08:24:23.790Z,605.00
2024-03-16T08:25:23.884Z,607.00
2024-03-16T08:26:23.880Z,606.00
2024-03-16T08:27:26.889Z,604.00
2024-03-16T08:28:25.058Z,604.00
2024-03-16T08:29:23.967Z,605.00
2024-03-16T08:30:23.967Z,605.00
2024-03-16T08:31:24.047Z,606.00
2024-03-16T08:32:24.000Z,606.00
2024-03-16T08:33:24.036Z,608.00
2024-03-16T08:34:24.182Z,609.00
2024-03-16T08:35:24.030Z,606.00
2024-03-16T08:36:24.053Z,603.00
2024-03-16T08:37:24.159Z,607.00
2024-03-16T08:38:24.071Z,605.00
2024-03-16T08:39:24.090Z,608.00
2024-03-16T08:40:24.110Z,603.00
2024-03-16T08:41:24.184Z,607.00
2024-03-16T08:42:24.128Z,606.00
2024-03-16T08:43:24.265Z,606.00
2024-03-16T08:44:24.164Z,606.00
2024-03-16T08:45:24.169Z,606.00
2024-03-16T08:46:27.671Z,604.00
2024-03-16T08:47:24.280Z,604.00
2024-03-16T08:48:24.205Z,604.00
2024-03-16T08:49:24.257Z,604.00
2024-03-16T08:50:24.198Z,603.00
2024-03-16T08:51:24.201Z,606.00
2024-03-16T08:52:24.309Z,604.00
2024-03-16T08:53:24.203Z,600.00
2024-03-16T08:54:24.218Z,605.00
2024-03-16T08:55:24.277Z,602.00
2024-03-16T08:56:24.243Z,605.00
2024-03-16T08:57:24.265Z,607.00
2024-03-16T08:58:24.408Z,605.00
2024-03-16T08:59:24.267Z,602.00
2024-03-16T09:00:24.323Z,607.00
2024-03-16T09:01:24.369Z,607.00
2024-03-16T09:02:24.292Z,602.00
2024-03-16T09:03:24.313Z,607.00
2024-03-16T09:04:24.335Z,606.00
2024-03-16T09:05:24.323Z,606.00
2024-03-16T09:06:24.351Z,608.00
2024-03-16T09:07:24.335Z,607.00
2024-03-16T09:08:24.335Z,608.00
2024-03-16T09:09:24.347Z,602.00
2024-03-16T09:10:24.385Z,606.00
2024-03-16T09:11:27.256Z,602.00
2024-03-16T09:12:24.373Z,602.00
2024-03-16T09:13:24.409Z,603.00
2024-03-16T09:14:24.377Z,605.00
2024-03-16T09:15:24.388Z,604.00
2024-03-16T09:16:24.471Z,604.00
2024-03-16T09:17:24.427Z,606.00
2024-03-16T09:18:24.434Z,606.00
2024-03-16T09:19:24.442Z,605.00
2024-03-16T09:20:24.457Z,608.00
2024-03-16T09:21:24.462Z,606.00
2024-03-16T09:22:24.552Z,605.00
2024-03-16T09:23:24.489Z,604.00
2024-03-16T09:24:24.500Z,607.00
2024-03-16T09:25:25.549Z,605.00
2024-03-16T09:26:24.531Z,605.00
2024-03-16T09:27:24.547Z,605.00
2024-03-16T09:28:24.681Z,607.00
2024-03-16T09:29:24.606Z,607.00
2024-03-16T09:30:24.578Z,604.00
2024-03-16T09:31:24.639Z,607.00
2024-03-16T09:32:24.609Z,606.00
2024-03-16T09:33:24.646Z,606.00
2024-03-16T09:34:24.724Z,608.00
2024-03-16T09:35:24.651Z,610.00
2024-03-16T09:36:24.640Z,609.00
2024-03-16T09:37:24.642Z,606.00
2024-03-16T09:38:24.650Z,609.00
2024-03-16T09:39:24.731Z,605.00
2024-03-16T09:40:24.752Z,605.00
2024-03-16T09:41:24.691Z,606.00
2024-03-16T09:42:24.697Z,608.00
2024-03-16T09:43:24.796Z,606.00
2024-03-16T09:44:24.726Z,609.00
2024-03-16T09:45:24.724Z,609.00
2024-03-16T09:46:24.736Z,608.00
2024-03-16T09:47:24.763Z,609.00
2024-03-16T09:48:27.496Z,608.00
2024-03-16T09:49:24.756Z,608.00
2024-03-16T09:50:24.764Z,606.00
2024-03-16T09:51:24.773Z,608.00
2024-03-16T09:52:24.784Z,610.00
2024-03-16T09:53:24.867Z,612.00
2024-03-16T09:54:24.823Z,607.00
2024-03-16T09:55:24.817Z,607.00
2024-03-16T09:56:24.830Z,608.00
2024-03-16T09:57:24.842Z,608.00
2024-03-16T09:58:24.892Z,604.00
2024-03-16T09:59:30.476Z,606.00
2024-03-16T10:00:25.868Z,607.00
2024-03-16T10:01:24.861Z,607.00
2024-03-16T10:02:24.853Z,609.00
2024-03-16T10:03:24.873Z,611.00
2024-03-16T10:04:24.867Z,613.00
2024-03-16T10:05:24.893Z,612.00
2024-03-16T10:06:24.879Z,612.00
2024-03-16T10:07:24.884Z,608.00
2024-03-16T10:08:24.913Z,611.00
2024-03-16T10:09:24.940Z,616.00
2024-03-16T10:10:24.917Z,613.00
2024-03-16T10:11:25.079Z,613.00
2024-03-16T10:12:24.987Z,610.00
2024-03-16T10:13:25.024Z,611.00
2024-03-16T10:14:25.054Z,610.00
2024-03-16T10:15:25.148Z,609.00
2024-03-16T10:16:25.198Z,606.00
2024-03-16T10:17:25.239Z,610.00
2024-03-16T10:18:25.251Z,610.00
2024-03-16T10:19:25.585Z,607.00
2024-03-16T10:20:25.385Z,611.00
2024-03-16T10:21:25.478Z,607.00
2024-03-16T10:22:25.505Z,604.00
2024-03-16T10:23:25.555Z,609.00
2024-03-16T10:24:25.607Z,608.00
2024-03-16T10:25:25.659Z,608.00
2024-03-16T10:26:25.726Z,614.00
2024-03-16T10:27:25.785Z,609.00
2024-03-16T10:28:25.840Z,609.00
2024-03-16T10:29:25.902Z,612.00
2024-03-16T10:30:25.965Z,611.00
2024-03-16T10:31:25.999Z,608.00
2024-03-16T10:32:26.088Z,608.00
2024-03-16T10:33:26.134Z,608.00
2024-03-16T10:34:26.204Z,610.00
2024-03-16T10:35:26.231Z,610.00
2024-03-16T10:36:26.304Z,610.00
2024-03-16T10:37:26.334Z,612.00
2024-03-16T10:38:26.378Z,609.00
2024-03-16T10:39:26.436Z,609.00
2024-03-16T10:40:26.468Z,612.00
2024-03-16T10:41:26.500Z,611.00
2024-03-16T10:42:26.529Z,611.00
2024-03-16T10:43:26.549Z,608.00
2024-03-16T10:44:26.568Z,609.00
2024-03-16T10:45:26.588Z,611.00
2024-03-16T10:46:26.607Z,605.00
2024-03-16T10:47:26.623Z,610.00
2024-03-16T10:48:26.640Z,605.00
2024-03-16T10:49:26.675Z,606.00
2024-03-16T10:50:26.679Z,608.00
2024-03-16T10:51:26.706Z,609.00
2024-03-16T10:52:26.716Z,610.00
2024-03-16T10:53:26.738Z,608.00
2024-03-16T10:54:26.772Z,612.00
2024-03-16T10:55:26.795Z,611.00
2024-03-16T10:56:26.806Z,614.00
2024-03-16T10:57:26.830Z,613.00
2024-03-16T10:58:26.854Z,609.00
2024-03-16T10:59:26.863Z,608.00
2024-03-16T11:00:26.890Z,606.00
2024-03-16T11:01:26.904Z,609.00
2024-03-16T11:02:26.993Z,611.00
2024-03-16T11:03:26.995Z,609.00
2024-03-16T11:04:27.008Z,607.00
2024-03-16T11:05:26.996Z,606.00
2024-03-16T11:06:27.037Z,612.00
2024-03-16T11:07:27.022Z,607.00
2024-03-16T11:08:27.051Z,608.00
2024-03-16T11:09:27.071Z,610.00
2024-03-16T11:10:27.125Z,610.00
2024-03-16T11:11:27.176Z,607.00
2024-03-16T11:12:27.137Z,610.00
2024-03-16T11:13:27.203Z,610.00
2024-03-16T11:14:27.202Z,610.00
2024-03-16T11:15:27.227Z,608.00
2024-03-16T11:16:27.255Z,612.00
2024-03-16T11:17:27.311Z,610.00
2024-03-16T11:18:27.304Z,610.00
2024-03-16T11:19:27.280Z,606.00
2024-03-16T11:20:27.298Z,607.00
2024-03-16T11:21:27.310Z,610.00
2024-03-16T11:22:27.333Z,607.00
2024-03-16T11:23:27.368Z,608.00
2024-03-16T11:24:27.381Z,607.00
2024-03-16T11:25:27.404Z,608.00
2024-03-16T11:26:27.428Z,606.00
2024-03-16T11:27:27.452Z,606.00
2024-03-16T11:28:27.469Z,606.00
2024-03-16T11:29:27.494Z,605.00
2024-03-16T11:30:34.231Z,605.00
2024-03-16T11:31:28.533Z,605.00
2024-03-16T11:32:27.568Z,605.00
2024-03-16T11:33:27.560Z,605.00
2024-03-16T11:34:27.605Z,604.00
2024-03-16T11:35:27.581Z,603.00
2024-03-16T11:36:27.591Z,601.00
2024-03-16T11:37:27.603Z,608.00
2024-03-16T11:38:27.609Z,600.00
2024-03-16T11:39:27.627Z,601.00
2024-03-16T11:40:27.648Z,600.00
2024-03-16T11:41:27.655Z,600.00
2024-03-16T11:42:27.659Z,604.00
2024-03-16T11:43:27.661Z,603.00
2024-03-16T11:44:27.677Z,600.00
2024-03-16T11:45:27.685Z,601.00
2024-03-16T11:46:27.697Z,603.00
2024-03-16T11:47:27.702Z,602.00
2024-03-16T11:48:27.710Z,606.00
2024-03-16T11:49:27.713Z,603.00
2024-03-16T11:50:27.726Z,601.00
2024-03-16T11:51:27.739Z,601.00
2024-03-16T11:52:27.763Z,602.00
2024-03-16T11:53:27.768Z,605.00
2024-03-16T11:54:27.773Z,601.00
2024-03-16T11:55:27.770Z,602.00
2024-03-16T11:56:27.793Z,603.00
2024-03-16T11:57:27.924Z,602.00
2024-03-16T11:58:27.841Z,608.00
2024-03-16T11:59:27.830Z,603.00
2024-03-16T12:00:27.846Z,605.00
2024-03-16T12:01:27.890Z,604.00
2024-03-16T12:02:27.866Z,607.00
2024-03-16T12:03:27.896Z,603.00
2024-03-16T12:04:27.911Z,600.00
2024-03-16T12:05:27.977Z,605.00
2024-03-16T12:06:27.956Z,607.00
2024-03-16T12:07:28.010Z,606.00
2024-03-16T12:08:28.071Z,605.00
2024-03-16T12:09:28.089Z,605.00
2024-03-16T12:10:28.141Z,603.00
2024-03-16T12:11:28.259Z,608.00
2024-03-16T12:12:28.245Z,605.00
2024-03-16T12:13:28.295Z,602.00
2024-03-16T12:14:38.454Z,602.00
2024-03-16T12:15:29.372Z,602.00
2024-03-16T12:16:28.377Z,602.00
2024-03-16T12:17:28.411Z,604.00
2024-03-16T12:18:28.399Z,603.00
2024-03-16T12:19:28.421Z,600.00
2024-03-16T12:20:28.424Z,603.00
2024-03-16T12:21:31.107Z,600.00
2024-03-16T12:22:28.440Z,605.00
2024-03-16T12:23:28.449Z,606.00
2024-03-16T12:24:28.458Z,606.00
2024-03-16T12:25:28.526Z,605.00
2024-03-16T12:26:28.509Z,605.00
2024-03-16T12:27:28.510Z,607.00
2024-03-16T12:28:28.502Z,603.00
2024-03-16T12:29:28.524Z,603.00